Time;durP1;ratioP1;P1;durP2;ratioP2;P2;SDS_P1;SDS_P2;PMS_P1;PMS_P2;Temp;Humidity;BMP_temperature;BMP_pressure;BME280_temperature;BME280_humidity;BME280_pressure;Samples;Min_cycle;Max_cycle;Signal;HPM_P1;HPM_P2
2023/03/31 00:01:34;;;;;;;5.03;2.43;;;17.60;49.70;;;;;;5038591;28;20479;-47
2023/03/31 00:04:03;;;;;;;5.33;2.03;;;17.70;49.70;;;;;;5043341;28;21999;-46
2023/03/31 00:06:37;;;;;;;2.20;1.90;;;17.70;49.60;;;;;;5033809;28;20455;-46
2023/03/31 00:09:08;;;;;;;4.33;1.97;;;17.80;49.60;;;;;;5044530;28;21080;-46
2023/03/31 00:11:34;;;;;;;4.90;1.83;;;17.90;49.50;;;;;;5047079;28;20449;-49
2023/03/31 00:14:00;;;;;;;3.40;1.60;;;17.90;49.40;;;;;;5030083;28;20526;-48
2023/03/31 00:16:26;;;;;;;6.73;1.97;;;17.90;49.40;;;;;;5039638;28;20200;-46
2023/03/31 00:18:52;;;;;;;4.13;1.90;;;18.00;49.40;;;;;;5039122;28;20229;-48
2023/03/31 00:21:32;;;;;;;6.30;2.07;;;18.00;49.30;;;;;;5044282;28;21195;-46
2023/03/31 00:24:03;;;;;;;10.40;2.20;;;17.90;49.30;;;;;;5046420;28;20197;-45
2023/03/31 00:26:30;;;;;;;3.03;1.50;;;17.90;49.40;;;;;;5042436;28;20473;-46
2023/03/31 00:28:56;;;;;;;7.43;2.27;;;17.90;49.40;;;;;;5034885;28;20543;-49
2023/03/31 00:31:22;;;;;;;2.57;1.40;;;17.80;49.50;;;;;;5035822;28;20454;-46
2023/03/31 00:33:49;;;;;;;5.53;1.73;;;17.80;50.30;;;;;;5037696;28;20486;-47
2023/03/31 00:36:20;;;;;;;6.20;2.30;;;17.80;49.70;;;;;;5043768;28;20854;-46
2023/03/31 00:38:46;;;;;;;3.10;1.73;;;17.60;49.80;;;;;;5032744;28;20471;-46
2023/03/31 00:41:12;;;;;;;4.03;2.80;;;17.50;49.80;;;;;;5037564;28;20447;-46
2023/03/31 00:43:38;;;;;;;7.00;2.03;;;17.40;50.00;;;;;;5047113;28;20446;-46
2023/03/31 00:46:17;;;;;;;3.77;1.97;;;17.40;50.10;;;;;;5046546;28;20452;-46
2023/03/31 00:48:56;;;;;;;3.80;2.17;;;17.40;50.30;;;;;;5039373;28;20196;-48
2023/03/31 00:51:25;;;;;;;5.33;1.80;;;17.40;50.20;;;;;;5042446;28;20459;-47
2023/03/31 00:54:05;;;;;;;6.23;1.83;;;17.40;50.40;;;;;;5044417;28;21008;-45
2023/03/31 00:56:38;;;;;;;3.53;1.80;;;17.40;50.40;;;;;;5045434;28;20457;-46
2023/03/31 00:59:09;;;;;;;4.23;1.67;;;17.40;50.40;;;;;;5041254;28;20447;-47
2023/03/31 01:01:38;;;;;;;3.83;1.63;;;17.40;50.30;;;;;;5038289;28;20964;-46
2023/03/31 01:04:06;;;;;;;7.83;2.10;;;17.20;50.50;;;;;;5040412;28;20481;-48
2023/03/31 01:06:32;;;;;;;5.03;2.20;;;17.20;50.60;;;;;;5039043;28;20861;-46
2023/03/31 01:08:58;;;;;;;5.07;2.00;;;17.20;50.80;;;;;;5039751;28;20464;-45
2023/03/31 01:11:29;;;;;;;5.93;2.20;;;17.10;51.00;;;;;;5046272;28;20875;-46
2023/03/31 01:13:56;;;;;;;3.70;2.00;;;16.90;51.40;;;;;;5037565;28;20893;-47
2023/03/31 01:16:22;;;;;;;5.23;2.57;;;16.90;51.50;;;;;;5034617;28;20443;-46
2023/03/31 01:18:48;;;;;;;5.00;2.10;;;16.90;51.50;;;;;;5032139;28;20496;-46
2023/03/31 01:21:46;;;;;;;4.50;2.10;;;17.00;51.50;;;;;;5046270;28;20519;-45
2023/03/31 01:24:48;;;;;;;3.50;1.70;;;17.10;51.40;;;;;;5048776;28;20458;-45
2023/03/31 01:27:55;;;;;;;5.27;1.70;;;16.90;51.60;;;;;;5041203;28;20469;-46
2023/03/31 01:30:32;;;;;;;6.50;2.30;;;16.90;51.70;;;;;;5029720;28;20489;-47
2023/03/31 01:33:01;;;;;;;9.43;2.13;;;16.90;51.70;;;;;;5043245;28;20495;-46
2023/03/31 01:35:51;;;;;;;3.93;2.03;;;17.10;51.40;;;;;;5049965;28;20456;-45
2023/03/31 01:38:16;;;;;;;8.20;2.30;;;17.20;51.10;;;;;;5044044;28;20457;-47
2023/03/31 01:40:51;;;;;;;13.20;2.40;;;17.30;50.80;;;;;;5042839;28;20451;-47
2023/03/31 01:43:28;;;;;;;4.30;2.00;;;17.40;50.90;;;;;;5051190;28;20192;-46
2023/03/31 01:46:00;;;;;;;5.47;1.90;;;17.50;50.20;;;;;;5044551;28;21012;-46
2023/03/31 01:48:51;;;;;;;6.97;3.03;;;17.60;50.10;;;;;;5046535;28;20454;-49
2023/03/31 01:51:25;;;;;;;4.57;2.30;;;17.60;50.00;;;;;;5046470;28;20477;-45
2023/03/31 01:53:57;;;;;;;3.90;2.13;;;17.30;50.60;;;;;;5051718;28;20581;-45
2023/03/31 01:56:26;;;;;;;5.00;1.90;;;17.30;50.60;;;;;;5042326;28;20486;-46
2023/03/31 01:59:02;;;;;;;5.63;2.17;;;17.40;50.70;;;;;;5046849;28;20459;-46
2023/03/31 02:01:36;;;;;;;2.87;2.47;;;17.30;50.90;;;;;;5043124;28;20446;-45
2023/03/31 02:04:08;;;;;;;5.70;2.60;;;17.20;50.90;;;;;;5033446;28;20945;-46
2023/03/31 02:06:39;;;;;;;4.40;2.20;;;17.10;51.30;;;;;;5034128;28;20588;-48
2023/03/31 02:09:16;;;;;;;2.83;2.07;;;17.10;51.50;;;;;;5033893;28;20516;-49
2023/03/31 02:11:43;;;;;;;3.37;2.00;;;16.90;52.00;;;;;;5041478;28;20430;-46
2023/03/31 02:14:17;;;;;;;6.10;2.27;;;16.40;51.90;;;;;;5042126;28;20531;-46
2023/03/31 02:16:46;;;;;;;7.47;3.10;;;16.00;52.30;;;;;;5037668;28;20463;-46
2023/03/31 02:19:17;;;;;;;7.50;2.10;;;16.00;52.60;;;;;;5035768;28;20494;-45
2023/03/31 02:21:47;;;;;;;5.63;2.20;;;15.90;51.90;;;;;;5045751;28;20443;-46
2023/03/31 02:24:14;;;;;;;4.27;2.00;;;15.80;52.40;;;;;;5035973;28;20438;-45
2023/03/31 02:27:11;;;;;;;4.07;2.17;;;15.70;52.40;;;;;;5032726;28;20993;-47
2023/03/31 02:29:37;;;;;;;5.37;2.10;;;15.70;52.70;;;;;;5036141;28;20431;-45
2023/03/31 02:32:11;;;;;;;3.50;1.80;;;15.90;53.00;;;;;;5042766;28;20458;-46
2023/03/31 02:34:37;;;;;;;8.30;2.23;;;16.00;52.90;;;;;;5036337;28;20212;-46
2023/03/31 02:37:02;;;;;;;4.30;1.47;;;16.10;53.20;;;;;;5042703;28;20859;-46
2023/03/31 02:39:32;;;;;;;3.97;2.00;;;16.20;53.50;;;;;;5047477;28;20201;-46
2023/03/31 02:42:01;;;;;;;3.20;1.63;;;16.30;53.50;;;;;;5041655;28;20288;-46
2023/03/31 02:44:26;;;;;;;4.63;1.93;;;16.30;53.40;;;;;;5046914;28;20450;-45
2023/03/31 02:46:53;;;;;;;3.33;1.90;;;16.00;54.20;;;;;;5047603;28;20922;-45
2023/03/31 02:49:20;;;;;;;4.00;2.07;;;15.80;54.70;;;;;;5048066;28;20592;-46
2023/03/31 02:51:57;;;;;;;4.13;2.23;;;15.90;54.80;;;;;;5044924;28;21443;-45
2023/03/31 02:54:45;;;;;;;6.87;2.20;;;15.90;55.60;;;;;;5039162;28;20490;-46
2023/03/31 02:57:16;;;;;;;5.97;2.03;;;16.30;54.80;;;;;;5042398;28;20489;-45
2023/03/31 03:00:07;;;;;;;4.60;2.13;;;16.60;54.20;;;;;;5043095;28;20443;-45
2023/03/31 03:02:41;;;;;;;3.60;1.80;;;16.80;53.70;;;;;;5037359;28;20963;-46
2023/03/31 03:05:22;;;;;;;3.13;1.87;;;16.80;53.60;;;;;;5038157;28;20450;-46
2023/03/31 03:08:17;;;;;;;3.03;2.10;;;16.70;53.60;;;;;;5044515;28;20462;-45
2023/03/31 03:11:10;;;;;;;6.10;1.93;;;16.80;53.50;;;;;;5005039;28;20918;-45
2023/03/31 03:13:47;;;;;;;4.30;2.43;;;17.00;53.20;;;;;;5042482;28;20492;-46
2023/03/31 03:16:24;;;;;;;3.10;2.13;;;17.10;53.20;;;;;;5043504;28;20465;-45
2023/03/31 03:19:05;;;;;;;4.33;2.23;;;17.10;52.90;;;;;;5044499;28;20444;-46
2023/03/31 03:21:31;;;;;;;3.43;2.10;;;16.70;53.00;;;;;;5046188;28;20453;-45
2023/03/31 03:23:58;;;;;;;4.83;2.77;;;16.60;54.00;;;;;;5041091;28;20443;-46
2023/03/31 03:26:26;;;;;;;3.50;2.20;;;16.70;53.80;;;;;;5042688;28;20445;-45
2023/03/31 03:28:53;;;;;;;3.70;2.67;;;16.80;53.80;;;;;;5048358;28;20517;-46
2023/03/31 03:31:19;;;;;;;8.37;2.47;;;16.70;54.10;;;;;;5045914;28;20930;-45
2023/03/31 03:33:45;;;;;;;5.13;2.07;;;16.80;54.10;;;;;;5040791;28;20488;-45
2023/03/31 03:36:11;;;;;;;3.57;2.17;;;16.70;54.30;;;;;;5044531;28;20514;-46
2023/03/31 03:38:36;;;;;;;4.50;2.60;;;16.60;54.50;;;;;;5041276;28;20575;-46
2023/03/31 03:41:02;;;;;;;4.27;2.47;;;16.80;54.30;;;;;;5039917;28;20607;-45
2023/03/31 03:43:28;;;;;;;5.57;2.10;;;16.70;54.10;;;;;;5036850;28;20282;-49
2023/03/31 03:45:54;;;;;;;3.40;2.30;;;16.70;54.20;;;;;;5035684;28;20957;-45
2023/03/31 03:48:20;;;;;;;1.97;1.63;;;16.60;54.10;;;;;;5042184;28;20208;-48
2023/03/31 03:50:46;;;;;;;5.67;2.97;;;16.70;54.10;;;;;;5038060;28;20450;-45
2023/03/31 03:53:12;;;;;;;4.23;1.97;;;16.60;54.30;;;;;;5045251;28;20574;-46
2023/03/31 03:55:38;;;;;;;6.10;2.17;;;16.60;54.20;;;;;;5047564;28;20361;-46
2023/03/31 03:58:04;;;;;;;4.07;2.20;;;16.70;54.10;;;;;;5047945;28;21036;-46
2023/03/31 04:00:30;;;;;;;4.50;2.50;;;16.80;53.90;;;;;;5037116;28;20208;-46
2023/03/31 04:02:55;;;;;;;2.30;2.10;;;16.90;53.70;;;;;;5040705;28;20466;-46
2023/03/31 04:05:21;;;;;;;3.93;2.23;;;16.80;53.60;;;;;;5047015;28;20438;-46
2023/03/31 04:07:47;;;;;;;4.83;2.47;;;16.80;53.70;;;;;;5042203;28;20193;-47
2023/03/31 04:10:12;;;;;;;6.53;2.80;;;16.70;54.00;;;;;;5045860;28;20188;-46
2023/03/31 04:12:38;;;;;;;4.90;2.97;;;16.60;54.30;;;;;;5037864;28;20209;-47
2023/03/31 04:15:04;;;;;;;3.67;2.23;;;16.50;54.50;;;;;;5037007;28;20660;-46
2023/03/31 04:17:33;;;;;;;3.80;2.33;;;16.30;54.60;;;;;;5046671;28;20199;-46
2023/03/31 04:20:04;;;;;;;4.43;2.57;;;15.90;55.70;;;;;;5034221;28;20520;-49
2023/03/31 04:22:34;;;;;;;4.90;2.80;;;15.80;56.00;;;;;;5035889;28;20447;-47
2023/03/31 04:25:09;;;;;;;8.27;3.27;;;15.30;57.00;;;;;;5036491;28;20443;-49
2023/03/31 04:27:35;;;;;;;6.43;3.97;;;15.00;58.30;;;;;;5036233;28;20448;-51
2023/03/31 04:30:00;;;;;;;8.93;2.67;;;15.10;58.70;;;;;;5047226;28;20439;-50
2023/03/31 04:32:27;;;;;;;6.00;2.70;;;15.20;57.60;;;;;;5045374;28;20212;-50
2023/03/31 04:35:01;;;;;;;4.73;2.43;;;15.20;57.90;;;;;;5040132;28;20205;-50
2023/03/31 04:37:33;;;;;;;6.67;3.33;;;15.10;57.90;;;;;;5031205;28;20443;-49
2023/03/31 04:40:07;;;;;;;4.27;2.83;;;15.00;58.50;;;;;;5029666;28;20443;-50
2023/03/31 04:42:32;;;;;;;5.23;3.70;;;15.00;58.40;;;;;;5038896;28;20817;-50
2023/03/31 04:44:58;;;;;;;5.80;2.50;;;15.00;58.60;;;;;;5037609;28;20461;-49
2023/03/31 04:47:24;;;;;;;4.47;3.07;;;15.10;58.30;;;;;;5037231;28;20201;-48
2023/03/31 04:49:49;;;;;;;6.23;3.20;;;15.10;57.90;;;;;;5044671;28;20260;-51
2023/03/31 04:52:15;;;;;;;5.30;2.97;;;15.10;58.20;;;;;;5044522;28;20235;-49
2023/03/31 04:54:40;;;;;;;4.30;3.10;;;15.30;58.10;;;;;;5049105;28;20251;-46
2023/03/31 04:57:06;;;;;;;11.53;3.80;;;15.60;57.60;;;;;;5039364;28;20196;-49
2023/03/31 04:59:31;;;;;;;5.77;3.30;;;15.70;57.10;;;;;;5046160;28;20598;-46
2023/03/31 05:01:57;;;;;;;4.00;2.80;;;15.60;57.20;;;;;;5043223;28;20212;-50
2023/03/31 05:04:23;;;;;;;7.40;3.10;;;15.60;57.20;;;;;;5042912;28;20660;-49
2023/03/31 05:06:49;;;;;;;6.67;4.23;;;15.70;57.00;;;;;;5049634;28;20188;-49
2023/03/31 05:09:14;;;;;;;5.83;3.10;;;15.40;57.60;;;;;;5047816;28;20579;-50
2023/03/31 05:11:40;;;;;;;6.73;3.37;;;15.20;58.10;;;;;;5049311;28;20451;-50
2023/03/31 05:14:06;;;;;;;7.87;3.27;;;15.10;58.30;;;;;;5043874;28;20232;-50
2023/03/31 05:16:31;;;;;;;8.07;3.97;;;15.10;58.50;;;;;;5039674;28;20196;-49
2023/03/31 05:18:57;;;;;;;8.10;4.87;;;14.80;58.90;;;;;;5038141;28;20192;-46
2023/03/31 05:21:23;;;;;;;7.50;4.70;;;14.80;59.30;;;;;;5042248;28;20276;-50
2023/03/31 05:23:49;;;;;;;7.83;3.80;;;15.00;59.10;;;;;;5037146;28;20539;-50
2023/03/31 05:26:14;;;;;;;4.20;2.93;;;15.00;58.90;;;;;;5039816;28;20246;-50
2023/03/31 05:28:41;;;;;;;5.30;3.30;;;15.10;59.30;;;;;;5041463;28;20440;-48
2023/03/31 05:31:07;;;;;;;5.73;3.10;;;15.50;59.00;;;;;;5046532;28;20687;-45
2023/03/31 05:33:38;;;;;;;6.50;3.80;;;15.90;58.70;;;;;;5043560;28;20490;-50
2023/03/31 05:36:05;;;;;;;7.80;4.33;;;16.10;58.50;;;;;;5045470;28;20446;-45
2023/03/31 05:38:32;;;;;;;6.10;3.23;;;16.30;58.30;;;;;;5043372;28;21037;-49
2023/03/31 05:40:57;;;;;;;7.20;4.17;;;16.00;58.60;;;;;;5042450;28;20534;-49
2023/03/31 05:43:23;;;;;;;6.63;3.83;;;16.10;59.00;;;;;;5034917;28;20663;-47
2023/03/31 05:45:49;;;;;;;7.40;3.83;;;16.20;59.20;;;;;;5030409;28;20201;-49
2023/03/31 05:48:14;;;;;;;8.30;4.20;;;16.30;59.40;;;;;;5052084;28;20567;-50
2023/03/31 05:50:41;;;;;;;5.67;3.80;;;16.40;59.20;;;;;;5039758;28;20397;-49
2023/03/31 05:53:07;;;;;;;9.43;3.77;;;16.40;59.30;;;;;;5037348;28;20638;-46
2023/03/31 05:55:35;;;;;;;7.07;4.23;;;16.50;59.50;;;;;;5040465;28;20446;-49
2023/03/31 05:58:00;;;;;;;4.43;3.80;;;16.50;59.70;;;;;;5044552;28;20201;-48
2023/03/31 06:00:26;;;;;;;9.53;3.97;;;16.40;60.10;;;;;;5047072;28;20446;-48
2023/03/31 06:02:52;;;;;;;6.63;4.17;;;16.20;61.40;;;;;;5043473;28;20545;-48
2023/03/31 06:05:18;;;;;;;8.07;4.73;;;16.00;61.80;;;;;;5038360;28;20224;-46
2023/03/31 06:07:44;;;;;;;11.20;5.13;;;16.10;62.00;;;;;;5045195;28;21011;-48
2023/03/31 06:10:10;;;;;;;11.53;5.30;;;16.20;62.00;;;;;;5045761;28;20207;-50
2023/03/31 06:12:35;;;;;;;8.33;3.87;;;16.10;62.40;;;;;;5046759;28;20226;-50
2023/03/31 06:15:02;;;;;;;6.57;4.57;;;16.10;62.40;;;;;;5047296;28;20192;-45
2023/03/31 06:17:28;;;;;;;10.17;4.97;;;16.10;62.50;;;;;;5042325;28;20196;-50
2023/03/31 06:19:53;;;;;;;7.30;4.83;;;16.10;62.60;;;;;;5040573;28;20451;-49
2023/03/31 06:22:19;;;;;;;10.27;5.77;;;16.00;62.90;;;;;;5048634;28;20269;-45
2023/03/31 06:24:45;;;;;;;10.23;5.30;;;16.10;62.90;;;;;;5046876;28;20206;-47
2023/03/31 06:27:11;;;;;;;5.97;4.43;;;16.00;62.80;;;;;;5045925;28;20438;-48
2023/03/31 06:29:36;;;;;;;6.60;4.80;;;15.80;63.50;;;;;;5044549;28;20220;-49
2023/03/31 06:32:03;;;;;;;9.17;4.83;;;15.90;64.00;;;;;;5037473;28;20189;-46
2023/03/31 06:34:29;;;;;;;9.80;4.30;;;15.80;64.10;;;;;;5046872;28;20270;-46
2023/03/31 06:36:55;;;;;;;8.40;4.93;;;15.90;64.20;;;;;;5052261;28;20910;-46
2023/03/31 06:39:21;;;;;;;7.97;4.60;;;16.00;63.80;;;;;;5043677;28;20209;-45
2023/03/31 06:41:46;;;;;;;5.70;5.00;;;16.00;63.40;;;;;;5045329;28;20813;-46
2023/03/31 06:44:15;;;;;;;8.20;4.13;;;16.10;63.50;;;;;;5050191;28;20671;-46
2023/03/31 06:46:41;;;;;;;11.00;4.57;;;16.00;63.50;;;;;;5049392;28;20196;-48
2023/03/31 06:49:06;;;;;;;9.53;5.37;;;15.80;63.60;;;;;;5039529;28;20447;-47
2023/03/31 06:51:32;;;;;;;11.20;5.53;;;15.80;65.00;;;;;;5041029;28;20487;-45
2023/03/31 06:53:58;;;;;;;11.93;5.07;;;15.80;65.00;;;;;;5044194;28;20281;-46
2023/03/31 06:56:23;;;;;;;10.27;5.00;;;15.70;65.40;;;;;;5043975;28;20303;-45
2023/03/31 06:58:49;;;;;;;7.90;5.10;;;15.70;66.20;;;;;;5050129;28;20258;-45
2023/03/31 07:01:15;;;;;;;9.53;5.97;;;15.30;67.60;;;;;;5047214;28;20184;-46
2023/03/31 07:03:40;;;;;;;10.53;5.50;;;15.40;68.50;;;;;;5047053;28;20213;-45
2023/03/31 07:06:06;;;;;;;8.33;6.50;;;15.40;68.80;;;;;;5048729;28;20235;-45
2023/03/31 07:08:32;;;;;;;7.37;5.00;;;15.50;68.20;;;;;;5044163;28;20242;-45
2023/03/31 07:10:59;;;;;;;11.27;4.90;;;15.60;67.90;;;;;;5032856;28;20201;-45
2023/03/31 07:13:26;;;;;;;6.70;4.57;;;15.50;68.10;;;;;;5041972;28;20256;-48
2023/03/31 07:15:52;;;;;;;7.07;4.80;;;15.40;68.20;;;;;;5047672;28;20447;-46
2023/03/31 07:18:18;;;;;;;8.30;4.30;;;15.10;69.30;;;;;;5050409;28;20466;-45
2023/03/31 07:20:48;;;;;;;8.73;4.13;;;14.40;70.60;;;;;;5046321;28;20448;-45
2023/03/31 07:23:14;;;;;;;10.03;3.80;;;13.60;73.80;;;;;;5050749;28;20505;-46
2023/03/31 07:25:40;;;;;;;5.30;3.50;;;13.60;75.90;;;;;;5048141;28;20942;-46
2023/03/31 07:28:06;;;;;;;6.80;4.53;;;14.00;74.80;;;;;;5045017;28;20284;-49
2023/03/31 07:30:31;;;;;;;4.80;3.30;;;14.10;74.80;;;;;;5044380;28;20220;-46
2023/03/31 07:32:57;;;;;;;9.20;3.37;;;14.30;73.40;;;;;;5043278;28;20656;-45
2023/03/31 07:35:23;;;;;;;8.10;3.63;;;14.40;72.30;;;;;;5045731;28;20914;-50
2023/03/31 07:37:49;;;;;;;4.53;3.40;;;14.10;71.90;;;;;;5044094;28;20197;-49
2023/03/31 07:40:21;;;;;;;6.60;3.17;;;14.10;73.50;;;;;;5051084;28;20205;-50
2023/03/31 07:42:47;;;;;;;4.23;3.00;;;13.90;72.30;;;;;;5037949;28;20447;-46
2023/03/31 07:45:15;;;;;;;4.07;2.90;;;14.00;72.70;;;;;;5042961;28;20858;-46
2023/03/31 07:47:41;;;;;;;3.53;2.70;;;13.90;72.00;;;;;;5036628;28;20455;-47
2023/03/31 07:50:08;;;;;;;5.67;3.67;;;14.10;72.70;;;;;;5049791;28;20439;-46
2023/03/31 07:52:34;;;;;;;4.00;2.83;;;14.10;71.20;;;;;;5049818;28;20548;-47
2023/03/31 07:54:59;;;;;;;4.90;3.17;;;14.20;69.80;;;;;;5038387;28;20482;-47
2023/03/31 07:57:25;;;;;;;3.70;2.53;;;14.20;70.40;;;;;;5038476;28;20203;-46
2023/03/31 07:59:50;;;;;;;2.40;2.20;;;14.50;69.60;;;;;;5032515;28;20197;-47
2023/03/31 08:02:16;;;;;;;4.83;2.10;;;14.60;67.80;;;;;;5029380;28;20192;-47
2023/03/31 08:04:44;;;;;;;5.83;2.17;;;14.80;66.40;;;;;;5034027;28;20207;-51
2023/03/31 08:07:11;;;;;;;2.17;1.97;;;14.80;65.40;;;;;;5045499;28;20451;-47
2023/03/31 08:09:38;;;;;;;1.90;1.80;;;14.70;64.80;;;;;;5047365;28;20458;-46
2023/03/31 08:12:04;;;;;;;2.10;1.50;;;14.80;66.20;;;;;;5041653;28;20532;-49
2023/03/31 08:14:31;;;;;;;2.37;1.73;;;14.80;63.10;;;;;;5041749;28;20483;-46
2023/03/31 08:16:56;;;;;;;2.77;1.60;;;14.90;63.00;;;;;;5040185;28;20994;-46
2023/03/31 08:19:23;;;;;;;2.30;1.87;;;14.90;62.70;;;;;;5037514;28;20440;-47
2023/03/31 08:21:50;;;;;;;1.80;1.30;;;15.00;62.80;;;;;;5032167;28;20193;-51
2023/03/31 08:24:15;;;;;;;1.50;1.40;;;15.20;63.20;;;;;;5041623;28;20439;-49
2023/03/31 08:26:41;;;;;;;4.30;1.90;;;15.40;61.60;;;;;;5045920;28;20964;-47
2023/03/31 08:29:07;;;;;;;1.17;0.90;;;15.70;61.80;;;;;;5044677;28;20188;-48
2023/03/31 08:31:32;;;;;;;2.80;1.50;;;15.70;60.30;;;;;;5042329;28;20583;-47
2023/03/31 08:33:58;;;;;;;1.57;1.20;;;15.70;61.00;;;;;;5036877;28;20228;-46
2023/03/31 08:36:25;;;;;;;1.40;1.00;;;15.90;60.80;;;;;;5046691;28;20193;-47
2023/03/31 08:38:50;;;;;;;1.53;1.20;;;16.00;60.70;;;;;;5045019;28;20275;-47
2023/03/31 08:41:53;;;;;;;5.20;1.43;;;16.10;60.00;;;;;;5046563;28;20566;-47
2023/03/31 08:44:28;;;;;;;1.20;1.10;;;16.50;60.90;;;;;;5032762;28;20200;-47
2023/03/31 08:46:56;;;;;;;1.47;1.17;;;16.80;59.30;;;;;;5040916;28;21078;-47
2023/03/31 08:49:23;;;;;;;1.60;1.30;;;17.00;58.70;;;;;;5038751;28;20450;-46
2023/03/31 08:51:56;;;;;;;1.20;1.10;;;17.10;58.90;;;;;;5033691;28;20494;-47
2023/03/31 08:54:50;;;;;;;3.20;1.30;;;17.20;59.20;;;;;;5036689;28;21336;-47
2023/03/31 08:57:30;;;;;;;3.20;1.90;;;17.30;57.70;;;;;;5039331;28;20848;-47
2023/03/31 09:00:05;;;;;;;4.50;1.53;;;17.70;58.20;;;;;;5043525;28;20457;-47
2023/03/31 09:02:51;;;;;;;1.30;1.20;;;17.60;56.70;;;;;;5036656;28;20447;-47
2023/03/31 09:05:26;;;;;;;3.30;1.30;;;17.60;56.40;;;;;;5035338;28;20467;-47
2023/03/31 09:08:13;;;;;;;1.40;1.10;;;17.40;56.50;;;;;;5043535;28;20938;-49
2023/03/31 09:10:50;;;;;;;2.30;1.80;;;17.70;58.00;;;;;;5043508;28;20447;-49
2023/03/31 09:13:57;;;;;;;2.10;1.33;;;17.80;56.50;;;;;;5044452;28;20580;-47
2023/03/31 09:16:32;;;;;;;4.87;1.47;;;17.80;56.60;;;;;;5031535;28;20450;-47
2023/03/31 09:19:01;;;;;;;2.50;1.50;;;18.10;56.00;;;;;;5040850;28;20474;-48
2023/03/31 09:21:39;;;;;;;4.07;1.60;;;18.10;54.90;;;;;;5048668;28;20929;-47
2023/03/31 09:24:14;;;;;;;3.43;1.60;;;17.90;54.00;;;;;;5038539;28;20442;-46
2023/03/31 09:26:39;;;;;;;3.50;1.97;;;17.60;54.30;;;;;;5046535;28;20547;-47
2023/03/31 09:29:36;;;;;;;4.00;1.67;;;17.70;54.60;;;;;;5049397;28;20481;-47
2023/03/31 09:32:18;;;;;;;1.70;1.30;;;17.80;54.20;;;;;;5025595;28;20240;-49
2023/03/31 09:34:45;;;;;;;2.30;1.50;;;17.90;54.00;;;;;;5043429;28;20463;-48
2023/03/31 09:37:11;;;;;;;2.70;1.47;;;17.70;52.90;;;;;;5035228;28;20959;-48
2023/03/31 09:39:38;;;;;;;3.67;1.60;;;18.10;53.80;;;;;;5041409;28;20428;-48
2023/03/31 09:42:04;;;;;;;4.13;1.47;;;18.30;53.30;;;;;;5031607;28;20443;-47
2023/03/31 09:44:35;;;;;;;1.90;1.43;;;18.00;50.20;;;;;;5048666;28;20439;-48
2023/03/31 09:47:02;;;;;;;2.70;1.30;;;18.00;50.70;;;;;;5044099;28;20508;-46
2023/03/31 09:49:32;;;;;;;3.90;1.53;;;17.80;50.10;;;;;;5048669;28;20442;-46
2023/03/31 09:52:31;;;;;;;2.97;1.10;;;17.90;51.20;;;;;;5047600;28;20482;-50
2023/03/31 09:55:05;;;;;;;2.50;1.33;;;17.70;50.10;;;;;;5032832;28;20479;-48
2023/03/31 09:57:34;;;;;;;4.00;1.63;;;18.00;50.40;;;;;;5039694;28;21705;-49
2023/03/31 10:00:27;;;;;;;2.50;1.40;;;18.00;50.40;;;;;;5039768;28;20807;-47
2023/03/31 10:03:00;;;;;;;7.00;1.60;;;17.70;49.80;;;;;;5041535;28;20943;-48
2023/03/31 10:05:42;;;;;;;4.50;1.77;;;17.60;50.70;;;;;;5044024;28;20459;-46
2023/03/31 10:08:10;;;;;;;3.93;1.57;;;17.50;49.70;;;;;;5043362;28;20451;-50
2023/03/31 10:10:37;;;;;;;5.03;1.60;;;17.80;50.20;;;;;;5044183;28;20454;-52
2023/03/31 10:13:09;;;;;;;2.43;1.43;;;17.80;48.70;;;;;;5046740;28;20510;-46
2023/03/31 10:15:38;;;;;;;3.97;1.97;;;17.80;48.60;;;;;;5048751;28;21216;-48
2023/03/31 10:18:04;;;;;;;5.83;1.40;;;17.80;47.70;;;;;;5043094;28;20457;-48
2023/03/31 10:20:37;;;;;;;2.47;1.83;;;17.70;47.10;;;;;;5044175;28;20493;-47
2023/03/31 10:23:15;;;;;;;3.70;1.40;;;17.90;47.70;;;;;;5048496;28;20573;-49
2023/03/31 10:25:41;;;;;;;3.73;1.53;;;17.90;48.10;;;;;;5049782;28;20438;-48
2023/03/31 10:28:14;;;;;;;3.90;2.00;;;18.30;47.40;;;;;;5041010;28;21040;-47
2023/03/31 10:30:47;;;;;;;4.47;1.30;;;18.20;45.90;;;;;;5037152;28;20444;-48
2023/03/31 10:33:16;;;;;;;3.70;1.60;;;18.30;46.40;;;;;;5046622;28;20577;-47
2023/03/31 10:35:42;;;;;;;9.27;1.87;;;18.20;45.60;;;;;;5047307;28;20447;-48
2023/03/31 10:38:24;;;;;;;3.83;1.50;;;18.30;47.00;;;;;;5046363;28;20446;-47
2023/03/31 10:40:52;;;;;;;3.97;1.83;;;18.60;46.30;;;;;;5046597;28;20438;-48
2023/03/31 10:43:24;;;;;;;5.40;1.70;;;19.00;46.00;;;;;;5043730;28;20435;-47
2023/03/31 10:45:53;;;;;;;3.80;1.60;;;18.70;43.80;;;;;;5035135;28;21025;-45
2023/03/31 10:48:33;;;;;;;3.50;1.60;;;18.80;44.70;;;;;;5038175;28;20966;-47
2023/03/31 10:51:04;;;;;;;3.33;1.30;;;18.70;43.90;;;;;;5046546;28;20489;-47
2023/03/31 10:53:59;;;;;;;5.47;1.37;;;18.70;44.00;;;;;;5041204;28;21005;-47
2023/03/31 10:56:42;;;;;;;2.07;1.57;;;18.80;44.00;;;;;;5050975;28;20455;-47
2023/03/31 10:59:11;;;;;;;4.57;1.80;;;19.00;44.30;;;;;;5042645;28;20998;-48
2023/03/31 11:01:36;;;;;;;2.50;1.63;;;19.30;44.10;;;;;;5047366;28;20451;-45
2023/03/31 11:04:24;;;;;;;3.83;1.73;;;19.40;44.50;;;;;;5044059;28;20935;-48
2023/03/31 11:07:21;;;;;;;4.50;1.40;;;19.60;43.20;;;;;;5049655;28;20200;-48
2023/03/31 11:10:08;;;;;;;7.10;1.60;;;19.70;42.20;;;;;;5050591;28;20472;-47
2023/03/31 11:12:51;;;;;;;4.00;1.60;;;19.50;41.20;;;;;;5047918;28;20449;-49
2023/03/31 11:15:38;;;;;;;2.70;1.50;;;19.50;41.80;;;;;;5047519;28;20493;-47
2023/03/31 11:18:25;;;;;;;3.33;1.77;;;19.50;41.60;;;;;;5048282;28;20561;-48
2023/03/31 11:20:51;;;;;;;2.60;1.30;;;19.30;41.40;;;;;;5043187;28;20988;-48
2023/03/31 11:23:41;;;;;;;5.30;1.70;;;19.30;41.70;;;;;;5051128;28;20572;-47
2023/03/31 11:26:15;;;;;;;7.37;1.60;;;19.00;41.80;;;;;;5040659;28;20211;-47
2023/03/31 11:28:43;;;;;;;3.00;1.00;;;19.10;42.60;;;;;;5051133;28;20546;-47
2023/03/31 11:31:20;;;;;;;2.60;1.43;;;18.50;45.00;;;;;;5047533;28;21709;-48
2023/03/31 11:34:16;;;;;;;2.07;1.10;;;17.10;53.70;;;;;;5039801;28;20487;-50
2023/03/31 11:36:50;;;;;;;3.37;1.00;;;15.40;59.50;;;;;;5046247;28;20565;-48
2023/03/31 11:39:44;;;;;;;2.50;1.20;;;14.50;63.10;;;;;;5046159;28;20447;-49
2023/03/31 11:42:18;;;;;;;1.17;0.70;;;14.40;64.80;;;;;;5041049;28;20446;-47
2023/03/31 11:44:51;;;;;;;2.20;0.93;;;14.00;63.20;;;;;;5044914;28;20477;-47
2023/03/31 11:47:30;;;;;;;1.70;1.00;;;14.10;63.20;;;;;;5043500;28;20439;-47
2023/03/31 11:50:02;;;;;;;2.33;0.90;;;14.10;63.30;;;;;;5038453;28;20513;-50
2023/03/31 11:52:32;;;;;;;1.70;0.70;;;14.20;63.80;;;;;;5045580;28;21004;-50
2023/03/31 11:55:04;;;;;;;1.40;0.93;;;14.30;62.70;;;;;;5043953;28;20467;-52
2023/03/31 11:57:38;;;;;;;2.63;0.97;;;14.10;62.00;;;;;;5036367;28;20451;-52
2023/03/31 12:00:21;;;;;;;3.73;0.90;;;14.00;60.70;;;;;;5039456;28;20483;-50
2023/03/31 12:02:52;;;;;;;1.00;0.60;;;14.00;61.10;;;;;;5038259;28;20550;-52
2023/03/31 12:05:20;;;;;;;1.73;0.70;;;14.10;61.90;;;;;;5037080;28;20448;-52
2023/03/31 12:08:01;;;;;;;1.80;0.90;;;14.30;60.90;;;;;;5035517;28;20508;-52
2023/03/31 12:10:40;;;;;;;2.60;0.80;;;14.40;60.20;;;;;;5040710;28;20455;-52
2023/03/31 12:13:24;;;;;;;2.10;1.00;;;14.70;60.40;;;;;;5040498;28;22131;-52
2023/03/31 12:16:14;;;;;;;1.00;0.70;;;14.40;58.60;;;;;;5037842;28;20436;-51
2023/03/31 12:19:04;;;;;;;1.13;0.70;;;14.50;59.40;;;;;;5041963;28;20509;-49
2023/03/31 12:21:32;;;;;;;2.20;0.90;;;14.80;59.60;;;;;;5042580;28;20454;-50
2023/03/31 12:23:58;;;;;;;1.43;0.70;;;15.30;62.70;;;;;;5041586;28;20450;-47
2023/03/31 12:26:56;;;;;;;1.20;0.80;;;15.80;61.30;;;;;;5040667;28;20443;-48
2023/03/31 12:29:31;;;;;;;1.90;1.10;;;16.30;60.30;;;;;;5015379;28;20197;-48
2023/03/31 12:32:00;;;;;;;1.97;0.80;;;16.50;58.60;;;;;;5044057;28;20533;-50
2023/03/31 12:34:27;;;;;;;1.27;0.67;;;16.70;56.50;;;;;;5037614;28;20617;-47
2023/03/31 12:37:30;;;;;;;3.20;1.13;;;16.50;55.00;;;;;;5032712;28;20456;-50
2023/03/31 12:40:21;;;;;;;2.00;1.00;;;16.20;54.40;;;;;;5044527;28;20466;-54
2023/03/31 12:43:02;;;;;;;4.23;1.10;;;15.90;55.20;;;;;;5031893;28;20509;-56
2023/03/31 12:45:38;;;;;;;3.53;0.93;;;15.70;55.40;;;;;;5044168;28;20465;-55
2023/03/31 12:48:25;;;;;;;1.27;0.70;;;16.00;55.20;;;;;;5039351;28;20458;-55
2023/03/31 12:51:20;;;;;;;0.90;0.70;;;16.30;55.20;;;;;;5046486;28;20860;-56
2023/03/31 12:54:19;;;;;;;1.43;1.03;;;16.50;52.80;;;;;;5040922;28;20577;-55
2023/03/31 12:57:00;;;;;;;2.53;1.07;;;16.80;52.90;;;;;;5046103;28;20458;-56
2023/03/31 12:59:36;;;;;;;3.57;0.90;;;16.90;51.90;;;;;;5048596;28;20458;-55
2023/03/31 13:02:21;;;;;;;0.70;0.63;;;17.10;52.20;;;;;;5044590;28;20452;-55
2023/03/31 13:04:49;;;;;;;1.77;0.93;;;17.30;51.00;;;;;;5036235;28;20439;-56
2023/03/31 13:07:26;;;;;;;1.67;0.80;;;17.20;50.10;;;;;;5031857;28;20451;-56
2023/03/31 13:10:25;;;;;;;1.47;1.00;;;17.20;50.50;;;;;;5045050;28;20478;-56